sensor_id;sensor_type;location;lat;lon;timestamp;P1;durP1;ratioP1;P2;durP2;ratioP2
58758;SDS011;46777;47.482;19.054;2022-07-29T00:02:23;8.40;;;7.53;;
58758;SDS011;46777;47.482;19.054;2022-07-29T00:05:08;8.15;;;7.10;;
58758;SDS011;46777;47.482;19.054;2022-07-29T00:07:54;8.35;;;6.65;;
58758;SDS011;46777;47.482;19.054;2022-07-29T00:10:39;7.78;;;7.07;;
58758;SDS011;46777;47.482;19.054;2022-07-29T00:13:24;7.78;;;6.68;;
58758;SDS011;46777;47.482;19.054;2022-07-29T00:16:09;7.68;;;6.97;;
58758;SDS011;46777;47.482;19.054;2022-07-29T00:18:53;8.43;;;7.20;;
58758;SDS011;46777;47.482;19.054;2022-07-29T00:21:38;7.72;;;7.03;;
58758;SDS011;46777;47.482;19.054;2022-07-29T00:24:23;7.35;;;6.65;;
58758;SDS011;46777;47.482;19.054;2022-07-29T00:27:08;7.90;;;7.10;;
58758;SDS011;46777;47.482;19.054;2022-07-29T00:29:53;9.85;;;7.75;;
58758;SDS011;46777;47.482;19.054;2022-07-29T00:32:38;7.10;;;6.40;;
58758;SDS011;46777;47.482;19.054;2022-07-29T00:35:22;8.15;;;7.15;;
58758;SDS011;46777;47.482;19.054;2022-07-29T00:38:26;8.13;;;7.35;;
58758;SDS011;46777;47.482;19.054;2022-07-29T00:41:14;7.78;;;6.75;;
58758;SDS011;46777;47.482;19.054;2022-07-29T00:43:59;7.60;;;6.65;;
58758;SDS011;46777;47.482;19.054;2022-07-29T00:46:44;7.72;;;6.95;;
58758;SDS011;46777;47.482;19.054;2022-07-29T00:49:28;8.25;;;7.45;;
58758;SDS011;46777;47.482;19.054;2022-07-29T00:52:13;7.18;;;6.57;;
58758;SDS011;46777;47.482;19.054;2022-07-29T00:54:58;7.63;;;6.82;;
58758;SDS011;46777;47.482;19.054;2022-07-29T00:57:43;8.60;;;7.18;;
58758;SDS011;46777;47.482;19.054;2022-07-29T01:00:29;8.05;;;7.35;;
58758;SDS011;46777;47.482;19.054;2022-07-29T01:03:13;7.70;;;7.00;;
58758;SDS011;46777;47.482;19.054;2022-07-29T01:05:58;8.05;;;7.25;;
58758;SDS011;46777;47.482;19.054;2022-07-29T01:08:47;8.30;;;7.50;;
58758;SDS011;46777;47.482;19.054;2022-07-29T01:11:32;8.60;;;6.85;;
58758;SDS011;46777;47.482;19.054;2022-07-29T01:14:18;7.80;;;6.95;;
58758;SDS011;46777;47.482;19.054;2022-07-29T01:17:08;8.60;;;6.97;;
58758;SDS011;46777;47.482;19.054;2022-07-29T01:19:58;8.00;;;7.05;;
58758;SDS011;46777;47.482;19.054;2022-07-29T01:28:49;7.93;;;7.13;;
58758;SDS011;46777;47.482;19.054;2022-07-29T01:37:45;8.50;;;7.20;;
58758;SDS011;46777;47.482;19.054;2022-07-29T01:40:36;8.25;;;7.45;;
58758;SDS011;46777;47.482;19.054;2022-07-29T01:46:56;8.32;;;7.40;;
58758;SDS011;46777;47.482;19.054;2022-07-29T01:49:49;8.40;;;7.70;;
58758;SDS011;46777;47.482;19.054;2022-07-29T01:55:31;8.15;;;7.35;;
58758;SDS011;46777;47.482;19.054;2022-07-29T01:58:19;8.15;;;7.35;;
58758;SDS011;46777;47.482;19.054;2022-07-29T02:01:06;11.20;;;8.30;;
58758;SDS011;46777;47.482;19.054;2022-07-29T02:03:53;9.00;;;7.85;;
58758;SDS011;46777;47.482;19.054;2022-07-29T02:06:41;9.73;;;8.00;;
58758;SDS011;46777;47.482;19.054;2022-07-29T02:09:28;10.65;;;7.88;;
58758;SDS011;46777;47.482;19.054;2022-07-29T02:12:16;12.30;;;8.48;;
58758;SDS011;46777;47.482;19.054;2022-07-29T02:15:03;8.30;;;7.35;;
58758;SDS011;46777;47.482;19.054;2022-07-29T02:17:51;9.95;;;7.70;;
58758;SDS011;46777;47.482;19.054;2022-07-29T02:20:50;9.77;;;7.20;;
58758;SDS011;46777;47.482;19.054;2022-07-29T02:23:37;9.35;;;8.15;;
58758;SDS011;46777;47.482;19.054;2022-07-29T02:26:23;9.32;;;7.38;;
58758;SDS011;46777;47.482;19.054;2022-07-29T02:29:10;9.13;;;7.10;;
58758;SDS011;46777;47.482;19.054;2022-07-29T02:31:56;10.88;;;7.97;;
58758;SDS011;46777;47.482;19.054;2022-07-29T02:34:43;8.32;;;7.53;;
58758;SDS011;46777;47.482;19.054;2022-07-29T02:37:30;8.30;;;7.60;;
58758;SDS011;46777;47.482;19.054;2022-07-29T02:40:17;8.80;;;7.60;;
58758;SDS011;46777;47.482;19.054;2022-07-29T02:43:02;8.52;;;7.70;;
58758;SDS011;46777;47.482;19.054;2022-07-29T02:45:50;8.77;;;7.80;;
58758;SDS011;46777;47.482;19.054;2022-07-29T02:48:37;8.70;;;7.90;;
58758;SDS011;46777;47.482;19.054;2022-07-29T02:51:27;9.75;;;7.32;;
58758;SDS011;46777;47.482;19.054;2022-07-29T02:54:26;8.77;;;7.93;;
58758;SDS011;46777;47.482;19.054;2022-07-29T03:00:32;8.20;;;7.40;;
58758;SDS011;46777;47.482;19.054;2022-07-29T03:03:20;8.00;;;7.30;;
58758;SDS011;46777;47.482;19.054;2022-07-29T03:06:06;8.40;;;7.60;;
58758;SDS011;46777;47.482;19.054;2022-07-29T03:08:52;8.13;;;7.32;;
58758;SDS011;46777;47.482;19.054;2022-07-29T03:11:39;8.38;;;7.05;;
58758;SDS011;46777;47.482;19.054;2022-07-29T03:14:25;8.00;;;7.20;;
58758;SDS011;46777;47.482;19.054;2022-07-29T03:17:10;7.88;;;6.97;;
58758;SDS011;46777;47.482;19.054;2022-07-29T03:19:56;8.30;;;7.50;;
58758;SDS011;46777;47.482;19.054;2022-07-29T03:22:41;8.07;;;7.30;;
58758;SDS011;46777;47.482;19.054;2022-07-29T03:25:27;8.55;;;7.65;;
58758;SDS011;46777;47.482;19.054;2022-07-29T03:28:12;8.18;;;7.40;;
58758;SDS011;46777;47.482;19.054;2022-07-29T03:30:57;9.05;;;8.15;;
58758;SDS011;46777;47.482;19.054;2022-07-29T03:33:42;9.88;;;7.88;;
58758;SDS011;46777;47.482;19.054;2022-07-29T03:36:27;8.70;;;7.85;;
58758;SDS011;46777;47.482;19.054;2022-07-29T03:39:12;10.63;;;7.90;;
58758;SDS011;46777;47.482;19.054;2022-07-29T03:42:01;12.25;;;11.18;;
58758;SDS011;46777;47.482;19.054;2022-07-29T03:44:49;9.43;;;8.23;;
58758;SDS011;46777;47.482;19.054;2022-07-29T03:47:35;8.95;;;8.15;;
58758;SDS011;46777;47.482;19.054;2022-07-29T03:50:26;9.10;;;8.23;;
58758;SDS011;46777;47.482;19.054;2022-07-29T03:53:13;9.15;;;8.30;;
58758;SDS011;46777;47.482;19.054;2022-07-29T03:55:58;9.18;;;8.27;;
58758;SDS011;46777;47.482;19.054;2022-07-29T03:58:44;8.63;;;7.82;;
58758;SDS011;46777;47.482;19.054;2022-07-29T04:01:29;8.73;;;7.90;;
58758;SDS011;46777;47.482;19.054;2022-07-29T04:04:17;8.95;;;7.95;;
58758;SDS011;46777;47.482;19.054;2022-07-29T04:07:02;8.82;;;8.10;;
58758;SDS011;46777;47.482;19.054;2022-07-29T04:09:48;10.15;;;8.50;;
58758;SDS011;46777;47.482;19.054;2022-07-29T04:12:32;10.27;;;8.25;;
58758;SDS011;46777;47.482;19.054;2022-07-29T04:15:17;9.85;;;8.52;;
58758;SDS011;46777;47.482;19.054;2022-07-29T04:18:02;9.70;;;8.80;;
58758;SDS011;46777;47.482;19.054;2022-07-29T04:20:47;8.70;;;7.90;;
58758;SDS011;46777;47.482;19.054;2022-07-29T04:23:32;8.80;;;7.93;;
58758;SDS011;46777;47.482;19.054;2022-07-29T04:26:17;9.50;;;8.52;;
58758;SDS011;46777;47.482;19.054;2022-07-29T04:29:02;8.85;;;8.15;;
58758;SDS011;46777;47.482;19.054;2022-07-29T04:31:47;8.95;;;8.10;;
58758;SDS011;46777;47.482;19.054;2022-07-29T04:34:32;8.93;;;8.13;;
58758;SDS011;46777;47.482;19.054;2022-07-29T04:37:17;9.55;;;8.70;;
58758;SDS011;46777;47.482;19.054;2022-07-29T04:40:02;9.82;;;8.93;;
58758;SDS011;46777;47.482;19.054;2022-07-29T04:42:47;9.35;;;8.38;;
58758;SDS011;46777;47.482;19.054;2022-07-29T04:45:31;9.80;;;8.90;;
58758;SDS011;46777;47.482;19.054;2022-07-29T04:48:16;9.27;;;8.38;;
58758;SDS011;46777;47.482;19.054;2022-07-29T04:51:01;9.80;;;8.88;;
58758;SDS011;46777;47.482;19.054;2022-07-29T04:53:46;9.48;;;8.57;;
58758;SDS011;46777;47.482;19.054;2022-07-29T04:56:31;10.02;;;9.10;;
58758;SDS011;46777;47.482;19.054;2022-07-29T04:59:16;9.77;;;8.80;;
58758;SDS011;46777;47.482;19.054;2022-07-29T05:02:00;9.60;;;8.80;;
58758;SDS011;46777;47.482;19.054;2022-07-29T05:04:45;9.25;;;8.30;;
58758;SDS011;46777;47.482;19.054;2022-07-29T05:07:30;9.50;;;8.57;;
58758;SDS011;46777;47.482;19.054;2022-07-29T05:10:15;9.32;;;8.50;;
58758;SDS011;46777;47.482;19.054;2022-07-29T05:13:00;9.70;;;8.75;;
58758;SDS011;46777;47.482;19.054;2022-07-29T05:15:44;8.98;;;8.18;;
58758;SDS011;46777;47.482;19.054;2022-07-29T05:18:29;9.95;;;8.95;;
58758;SDS011;46777;47.482;19.054;2022-07-29T05:21:14;10.20;;;9.23;;
58758;SDS011;46777;47.482;19.054;2022-07-29T05:23:59;9.60;;;8.70;;
58758;SDS011;46777;47.482;19.054;2022-07-29T05:26:44;9.93;;;8.93;;
58758;SDS011;46777;47.482;19.054;2022-07-29T05:29:29;9.60;;;8.80;;
58758;SDS011;46777;47.482;19.054;2022-07-29T05:32:14;9.93;;;9.02;;
58758;SDS011;46777;47.482;19.054;2022-07-29T05:34:59;10.35;;;9.45;;
58758;SDS011;46777;47.482;19.054;2022-07-29T05:37:44;10.55;;;9.55;;
58758;SDS011;46777;47.482;19.054;2022-07-29T05:40:29;10.32;;;9.40;;
58758;SDS011;46777;47.482;19.054;2022-07-29T05:43:13;10.18;;;9.15;;
58758;SDS011;46777;47.482;19.054;2022-07-29T05:45:58;10.57;;;9.40;;
58758;SDS011;46777;47.482;19.054;2022-07-29T05:48:43;10.15;;;8.30;;
58758;SDS011;46777;47.482;19.054;2022-07-29T05:51:28;10.38;;;8.98;;
58758;SDS011;46777;47.482;19.054;2022-07-29T05:54:12;10.55;;;9.55;;
58758;SDS011;46777;47.482;19.054;2022-07-29T05:56:57;10.38;;;9.27;;
58758;SDS011;46777;47.482;19.054;2022-07-29T05:59:42;13.85;;;9.35;;
58758;SDS011;46777;47.482;19.054;2022-07-29T06:02:27;10.75;;;9.68;;
58758;SDS011;46777;47.482;19.054;2022-07-29T06:05:12;10.98;;;9.50;;
58758;SDS011;46777;47.482;19.054;2022-07-29T06:07:57;9.80;;;9.00;;
58758;SDS011;46777;47.482;19.054;2022-07-29T06:10:41;9.55;;;8.65;;
58758;SDS011;46777;47.482;19.054;2022-07-29T06:13:26;10.43;;;9.57;;
58758;SDS011;46777;47.482;19.054;2022-07-29T06:16:12;10.25;;;9.35;;
58758;SDS011;46777;47.482;19.054;2022-07-29T06:18:57;10.60;;;9.60;;
58758;SDS011;46777;47.482;19.054;2022-07-29T06:21:42;10.20;;;9.30;;
58758;SDS011;46777;47.482;19.054;2022-07-29T06:24:27;10.90;;;9.73;;
58758;SDS011;46777;47.482;19.054;2022-07-29T06:27:12;10.25;;;9.25;;
58758;SDS011;46777;47.482;19.054;2022-07-29T06:29:57;13.43;;;9.73;;
58758;SDS011;46777;47.482;19.054;2022-07-29T06:32:42;10.73;;;9.63;;
58758;SDS011;46777;47.482;19.054;2022-07-29T06:35:27;9.95;;;9.05;;
58758;SDS011;46777;47.482;19.054;2022-07-29T06:38:12;10.90;;;9.80;;
58758;SDS011;46777;47.482;19.054;2022-07-29T06:40:58;12.90;;;8.98;;
58758;SDS011;46777;47.482;19.054;2022-07-29T06:43:54;10.65;;;9.15;;
58758;SDS011;46777;47.482;19.054;2022-07-29T06:46:39;11.07;;;9.50;;
58758;SDS011;46777;47.482;19.054;2022-07-29T06:49:23;10.63;;;9.48;;
58758;SDS011;46777;47.482;19.054;2022-07-29T06:52:10;11.20;;;9.05;;
58758;SDS011;46777;47.482;19.054;2022-07-29T06:54:54;11.70;;;8.80;;
58758;SDS011;46777;47.482;19.054;2022-07-29T06:57:39;10.30;;;9.30;;
58758;SDS011;46777;47.482;19.054;2022-07-29T07:00:24;11.93;;;9.73;;
58758;SDS011;46777;47.482;19.054;2022-07-29T07:03:09;10.57;;;9.43;;
58758;SDS011;46777;47.482;19.054;2022-07-29T07:05:54;10.82;;;9.43;;
58758;SDS011;46777;47.482;19.054;2022-07-29T07:08:40;10.15;;;9.15;;
58758;SDS011;46777;47.482;19.054;2022-07-29T07:11:24;11.18;;;9.95;;
58758;SDS011;46777;47.482;19.054;2022-07-29T07:14:09;10.88;;;9.98;;
58758;SDS011;46777;47.482;19.054;2022-07-29T07:16:54;11.25;;;10.13;;
58758;SDS011;46777;47.482;19.054;2022-07-29T07:19:39;10.68;;;9.57;;
58758;SDS011;46777;47.482;19.054;2022-07-29T07:22:23;10.20;;;9.35;;
58758;SDS011;46777;47.482;19.054;2022-07-29T07:25:09;10.32;;;9.52;;
58758;SDS011;46777;47.482;19.054;2022-07-29T07:27:54;10.48;;;9.48;;
58758;SDS011;46777;47.482;19.054;2022-07-29T07:30:39;11.57;;;9.23;;
58758;SDS011;46777;47.482;19.054;2022-07-29T07:33:24;10.90;;;9.73;;
58758;SDS011;46777;47.482;19.054;2022-07-29T07:36:09;10.43;;;9.52;;
58758;SDS011;46777;47.482;19.054;2022-07-29T07:38:54;10.85;;;9.70;;
58758;SDS011;46777;47.482;19.054;2022-07-29T07:41:38;10.82;;;9.80;;
58758;SDS011;46777;47.482;19.054;2022-07-29T07:44:23;10.27;;;9.48;;
58758;SDS011;46777;47.482;19.054;2022-07-29T07:47:08;9.90;;;9.10;;
58758;SDS011;46777;47.482;19.054;2022-07-29T07:49:53;10.25;;;9.25;;
58758;SDS011;46777;47.482;19.054;2022-07-29T07:52:51;10.95;;;9.77;;
58758;SDS011;46777;47.482;19.054;2022-07-29T07:55:40;10.88;;;9.85;;
58758;SDS011;46777;47.482;19.054;2022-07-29T07:58:26;11.02;;;9.95;;
58758;SDS011;46777;47.482;19.054;2022-07-29T08:01:11;10.55;;;9.20;;
58758;SDS011;46777;47.482;19.054;2022-07-29T08:03:55;13.30;;;9.52;;
58758;SDS011;46777;47.482;19.054;2022-07-29T08:06:40;10.60;;;9.70;;
58758;SDS011;46777;47.482;19.054;2022-07-29T08:09:26;11.45;;;9.40;;
58758;SDS011;46777;47.482;19.054;2022-07-29T08:12:12;10.77;;;9.68;;
58758;SDS011;46777;47.482;19.054;2022-07-29T08:14:57;10.75;;;9.60;;
58758;SDS011;46777;47.482;19.054;2022-07-29T08:17:41;11.40;;;10.40;;
58758;SDS011;46777;47.482;19.054;2022-07-29T08:20:26;10.63;;;9.73;;
58758;SDS011;46777;47.482;19.054;2022-07-29T08:23:11;10.75;;;9.85;;
58758;SDS011;46777;47.482;19.054;2022-07-29T08:25:56;10.68;;;9.75;;
58758;SDS011;46777;47.482;19.054;2022-07-29T08:28:42;10.25;;;9.45;;
58758;SDS011;46777;47.482;19.054;2022-07-29T08:31:29;10.85;;;10.00;;
58758;SDS011;46777;47.482;19.054;2022-07-29T08:34:14;10.70;;;9.80;;
58758;SDS011;46777;47.482;19.054;2022-07-29T08:36:59;11.27;;;10.07;;
58758;SDS011;46777;47.482;19.054;2022-07-29T08:39:44;10.82;;;9.82;;
58758;SDS011;46777;47.482;19.054;2022-07-29T08:42:29;12.90;;;10.30;;
58758;SDS011;46777;47.482;19.054;2022-07-29T08:45:14;10.45;;;9.43;;
58758;SDS011;46777;47.482;19.054;2022-07-29T08:47:59;14.20;;;13.15;;
58758;SDS011;46777;47.482;19.054;2022-07-29T08:50:44;10.88;;;9.77;;
58758;SDS011;46777;47.482;19.054;2022-07-29T08:53:30;10.50;;;9.63;;
58758;SDS011;46777;47.482;19.054;2022-07-29T08:56:17;11.18;;;9.95;;
58758;SDS011;46777;47.482;19.054;2022-07-29T08:59:04;10.60;;;9.70;;
58758;SDS011;46777;47.482;19.054;2022-07-29T09:01:51;10.50;;;9.60;;
58758;SDS011;46777;47.482;19.054;2022-07-29T09:04:37;11.15;;;9.82;;
58758;SDS011;46777;47.482;19.054;2022-07-29T09:07:23;11.52;;;9.77;;
58758;SDS011;46777;47.482;19.054;2022-07-29T09:10:08;10.60;;;9.73;;
58758;SDS011;46777;47.482;19.054;2022-07-29T09:12:56;10.75;;;9.68;;
58758;SDS011;46777;47.482;19.054;2022-07-29T09:15:41;14.18;;;10.27;;
58758;SDS011;46777;47.482;19.054;2022-07-29T09:18:39;12.23;;;9.88;;
58758;SDS011;46777;47.482;19.054;2022-07-29T09:21:25;10.75;;;9.75;;
58758;SDS011;46777;47.482;19.054;2022-07-29T09:24:43;10.82;;;9.68;;
58758;SDS011;46777;47.482;19.054;2022-07-29T09:27:29;10.73;;;9.52;;
58758;SDS011;46777;47.482;19.054;2022-07-29T09:30:13;10.43;;;9.43;;
58758;SDS011;46777;47.482;19.054;2022-07-29T09:32:59;10.35;;;9.38;;
58758;SDS011;46777;47.482;19.054;2022-07-29T09:35:58;9.85;;;8.90;;
58758;SDS011;46777;47.482;19.054;2022-07-29T09:38:59;12.40;;;9.95;;
58758;SDS011;46777;47.482;19.054;2022-07-29T09:41:49;10.70;;;9.77;;
58758;SDS011;46777;47.482;19.054;2022-07-29T09:45:07;10.55;;;9.50;;
58758;SDS011;46777;47.482;19.054;2022-07-29T09:50:36;10.48;;;9.18;;
58758;SDS011;46777;47.482;19.054;2022-07-29T09:53:33;10.80;;;9.32;;
58758;SDS011;46777;47.482;19.054;2022-07-29T09:56:20;10.93;;;8.60;;
58758;SDS011;46777;47.482;19.054;2022-07-29T09:59:22;9.65;;;8.80;;
58758;SDS011;46777;47.482;19.054;2022-07-29T10:02:14;9.70;;;8.80;;
58758;SDS011;46777;47.482;19.054;2022-07-29T10:04:59;9.35;;;8.40;;
58758;SDS011;46777;47.482;19.054;2022-07-29T10:07:49;9.50;;;8.65;;
58758;SDS011;46777;47.482;19.054;2022-07-29T10:10:37;9.50;;;8.70;;
58758;SDS011;46777;47.482;19.054;2022-07-29T10:13:23;9.23;;;7.88;;
58758;SDS011;46777;47.482;19.054;2022-07-29T10:16:10;9.10;;;8.05;;
58758;SDS011;46777;47.482;19.054;2022-07-29T10:18:55;9.20;;;8.45;;
58758;SDS011;46777;47.482;19.054;2022-07-29T10:21:40;9.90;;;9.10;;
58758;SDS011;46777;47.482;19.054;2022-07-29T10:24:28;8.77;;;8.10;;
58758;SDS011;46777;47.482;19.054;2022-07-29T10:27:14;9.40;;;8.50;;
58758;SDS011;46777;47.482;19.054;2022-07-29T10:29:59;9.18;;;8.27;;
58758;SDS011;46777;47.482;19.054;2022-07-29T10:33:07;9.27;;;7.80;;
58758;SDS011;46777;47.482;19.054;2022-07-29T10:36:04;9.52;;;8.15;;
58758;SDS011;46777;47.482;19.054;2022-07-29T10:42:21;9.40;;;7.88;;
58758;SDS011;46777;47.482;19.054;2022-07-29T10:45:09;9.23;;;8.30;;
58758;SDS011;46777;47.482;19.054;2022-07-29T10:48:03;9.50;;;8.70;;
58758;SDS011;46777;47.482;19.054;2022-07-29T10:50:53;10.18;;;8.93;;
58758;SDS011;46777;47.482;19.054;2022-07-29T10:53:49;9.55;;;8.70;;
58758;SDS011;46777;47.482;19.054;2022-07-29T10:56:37;9.02;;;8.23;;
58758;SDS011;46777;47.482;19.054;2022-07-29T10:59:22;9.80;;;8.80;;
58758;SDS011;46777;47.482;19.054;2022-07-29T11:05:20;9.25;;;8.45;;
58758;SDS011;46777;47.482;19.054;2022-07-29T11:14:04;9.38;;;8.48;;
58758;SDS011;46777;47.482;19.054;2022-07-29T11:17:04;8.88;;;8.07;;
58758;SDS011;46777;47.482;19.054;2022-07-29T11:19:50;9.48;;;8.65;;
58758;SDS011;46777;47.482;19.054;2022-07-29T11:22:35;9.00;;;8.15;;
58758;SDS011;46777;47.482;19.054;2022-07-29T11:25:21;9.13;;;8.20;;
58758;SDS011;46777;47.482;19.054;2022-07-29T11:28:16;9.02;;;8.10;;
58758;SDS011;46777;47.482;19.054;2022-07-29T11:31:04;8.52;;;7.82;;
58758;SDS011;46777;47.482;19.054;2022-07-29T11:33:51;8.10;;;7.30;;
58758;SDS011;46777;47.482;19.054;2022-07-29T11:36:37;8.65;;;7.85;;
58758;SDS011;46777;47.482;19.054;2022-07-29T11:42:39;8.73;;;7.88;;
58758;SDS011;46777;47.482;19.054;2022-07-29T11:45:25;10.98;;;8.00;;
58758;SDS011;46777;47.482;19.054;2022-07-29T11:48:28;9.48;;;8.68;;
58758;SDS011;46777;47.482;19.054;2022-07-29T11:51:13;9.95;;;9.00;;
58758;SDS011;46777;47.482;19.054;2022-07-29T11:53:57;9.25;;;8.18;;
58758;SDS011;46777;47.482;19.054;2022-07-29T11:56:43;8.23;;;7.43;;
58758;SDS011;46777;47.482;19.054;2022-07-29T11:59:30;9.00;;;8.18;;
58758;SDS011;46777;47.482;19.054;2022-07-29T12:02:15;8.40;;;7.63;;
58758;SDS011;46777;47.482;19.054;2022-07-29T12:05:00;8.63;;;7.93;;
58758;SDS011;46777;47.482;19.054;2022-07-29T12:07:45;8.50;;;7.80;;
58758;SDS011;46777;47.482;19.054;2022-07-29T12:10:31;7.82;;;7.22;;
58758;SDS011;46777;47.482;19.054;2022-07-29T12:13:17;8.23;;;7.57;;
58758;SDS011;46777;47.482;19.054;2022-07-29T12:16:03;7.93;;;7.10;;
58758;SDS011;46777;47.482;19.054;2022-07-29T12:18:54;8.60;;;7.78;;
58758;SDS011;46777;47.482;19.054;2022-07-29T12:21:47;8.70;;;8.10;;
58758;SDS011;46777;47.482;19.054;2022-07-29T12:24:42;8.80;;;8.10;;
58758;SDS011;46777;47.482;19.054;2022-07-29T12:27:28;8.57;;;7.78;;
58758;SDS011;46777;47.482;19.054;2022-07-29T12:30:15;9.10;;;8.30;;
58758;SDS011;46777;47.482;19.054;2022-07-29T12:33:00;9.43;;;8.57;;
58758;SDS011;46777;47.482;19.054;2022-07-29T12:35:46;9.85;;;8.95;;
58758;SDS011;46777;47.482;19.054;2022-07-29T12:38:33;10.95;;;9.98;;
58758;SDS011;46777;47.482;19.054;2022-07-29T12:41:18;11.00;;;10.27;;
58758;SDS011;46777;47.482;19.054;2022-07-29T12:44:03;9.82;;;9.07;;
58758;SDS011;46777;47.482;19.054;2022-07-29T12:47:01;11.20;;;10.30;;
58758;SDS011;46777;47.482;19.054;2022-07-29T12:49:47;12.80;;;11.70;;
58758;SDS011;46777;47.482;19.054;2022-07-29T12:52:33;12.85;;;12.02;;
58758;SDS011;46777;47.482;19.054;2022-07-29T12:58:39;13.30;;;12.30;;
58758;SDS011;46777;47.482;19.054;2022-07-29T13:01:26;14.30;;;13.43;;
58758;SDS011;46777;47.482;19.054;2022-07-29T13:04:11;14.27;;;13.25;;
58758;SDS011;46777;47.482;19.054;2022-07-29T13:07:15;14.30;;;13.38;;
58758;SDS011;46777;47.482;19.054;2022-07-29T13:10:13;14.13;;;13.32;;
58758;SDS011;46777;47.482;19.054;2022-07-29T13:16:05;12.80;;;11.93;;
58758;SDS011;46777;47.482;19.054;2022-07-29T13:19:11;8.57;;;7.97;;
58758;SDS011;46777;47.482;19.054;2022-07-29T13:21:56;7.97;;;7.18;;
58758;SDS011;46777;47.482;19.054;2022-07-29T13:27:37;8.50;;;7.70;;
58758;SDS011;46777;47.482;19.054;2022-07-29T13:30:24;8.32;;;7.40;;
58758;SDS011;46777;47.482;19.054;2022-07-29T13:33:09;8.65;;;7.85;;
58758;SDS011;46777;47.482;19.054;2022-07-29T13:35:53;8.75;;;7.70;;
58758;SDS011;46777;47.482;19.054;2022-07-29T13:38:38;11.15;;;7.90;;
58758;SDS011;46777;47.482;19.054;2022-07-29T13:41:23;8.30;;;7.70;;
58758;SDS011;46777;47.482;19.054;2022-07-29T13:44:08;8.07;;;7.35;;
58758;SDS011;46777;47.482;19.054;2022-07-29T13:46:53;8.45;;;7.75;;
58758;SDS011;46777;47.482;19.054;2022-07-29T13:49:37;9.00;;;7.80;;
58758;SDS011;46777;47.482;19.054;2022-07-29T13:52:22;11.65;;;7.63;;
58758;SDS011;46777;47.482;19.054;2022-07-29T13:55:07;8.45;;;7.75;;
58758;SDS011;46777;47.482;19.054;2022-07-29T13:57:52;9.18;;;8.38;;
58758;SDS011;46777;47.482;19.054;2022-07-29T14:00:37;8.57;;;7.70;;
58758;SDS011;46777;47.482;19.054;2022-07-29T14:03:22;8.15;;;7.47;;
58758;SDS011;46777;47.482;19.054;2022-07-29T14:06:06;8.85;;;7.97;;
58758;SDS011;46777;47.482;19.054;2022-07-29T14:08:51;8.52;;;7.68;;
58758;SDS011;46777;47.482;19.054;2022-07-29T14:11:36;8.75;;;7.88;;
58758;SDS011;46777;47.482;19.054;2022-07-29T14:14:22;8.73;;;7.60;;
58758;SDS011;46777;47.482;19.054;2022-07-29T14:17:07;8.27;;;7.68;;
58758;SDS011;46777;47.482;19.054;2022-07-29T14:19:52;8.98;;;8.00;;
58758;SDS011;46777;47.482;19.054;2022-07-29T14:22:37;10.00;;;8.25;;
58758;SDS011;46777;47.482;19.054;2022-07-29T14:25:23;9.52;;;8.73;;
58758;SDS011;46777;47.482;19.054;2022-07-29T14:28:07;8.85;;;8.15;;
58758;SDS011;46777;47.482;19.054;2022-07-29T14:30:52;8.80;;;8.00;;
58758;SDS011;46777;47.482;19.054;2022-07-29T14:33:37;9.05;;;8.25;;
58758;SDS011;46777;47.482;19.054;2022-07-29T14:36:22;9.35;;;8.45;;
58758;SDS011;46777;47.482;19.054;2022-07-29T14:39:07;8.75;;;8.07;;
58758;SDS011;46777;47.482;19.054;2022-07-29T14:41:51;9.27;;;8.50;;
58758;SDS011;46777;47.482;19.054;2022-07-29T14:44:36;8.68;;;7.97;;
58758;SDS011;46777;47.482;19.054;2022-07-29T14:47:21;8.98;;;8.18;;
58758;SDS011;46777;47.482;19.054;2022-07-29T14:50:09;8.80;;;8.10;;
58758;SDS011;46777;47.482;19.054;2022-07-29T14:52:54;8.88;;;8.02;;
58758;SDS011;46777;47.482;19.054;2022-07-29T14:55:39;10.10;;;8.52;;
58758;SDS011;46777;47.482;19.054;2022-07-29T14:58:24;7.85;;;7.25;;
58758;SDS011;46777;47.482;19.054;2022-07-29T15:01:09;9.10;;;8.25;;
58758;SDS011;46777;47.482;19.054;2022-07-29T15:03:54;8.95;;;8.07;;
58758;SDS011;46777;47.482;19.054;2022-07-29T15:06:39;8.75;;;7.95;;
58758;SDS011;46777;47.482;19.054;2022-07-29T15:09:24;8.73;;;7.88;;
58758;SDS011;46777;47.482;19.054;2022-07-29T15:12:08;8.57;;;7.93;;
58758;SDS011;46777;47.482;19.054;2022-07-29T15:14:54;8.90;;;8.20;;
58758;SDS011;46777;47.482;19.054;2022-07-29T15:17:39;9.00;;;8.20;;
58758;SDS011;46777;47.482;19.054;2022-07-29T15:20:24;9.10;;;8.20;;
58758;SDS011;46777;47.482;19.054;2022-07-29T15:23:11;9.38;;;8.57;;
58758;SDS011;46777;47.482;19.054;2022-07-29T15:25:56;9.40;;;8.60;;
58758;SDS011;46777;47.482;19.054;2022-07-29T15:28:41;8.77;;;7.93;;
58758;SDS011;46777;47.482;19.054;2022-07-29T15:31:26;8.70;;;8.00;;
58758;SDS011;46777;47.482;19.054;2022-07-29T15:34:11;8.43;;;7.75;;
58758;SDS011;46777;47.482;19.054;2022-07-29T15:36:56;9.18;;;8.45;;
58758;SDS011;46777;47.482;19.054;2022-07-29T15:39:41;9.50;;;8.70;;
58758;SDS011;46777;47.482;19.054;2022-07-29T15:42:25;8.80;;;8.00;;
58758;SDS011;46777;47.482;19.054;2022-07-29T15:45:10;8.60;;;7.78;;
58758;SDS011;46777;47.482;19.054;2022-07-29T15:47:55;8.60;;;7.70;;
58758;SDS011;46777;47.482;19.054;2022-07-29T15:50:40;9.30;;;8.50;;
58758;SDS011;46777;47.482;19.054;2022-07-29T15:53:25;8.55;;;7.85;;
58758;SDS011;46777;47.482;19.054;2022-07-29T15:56:09;9.00;;;8.18;;
58758;SDS011;46777;47.482;19.054;2022-07-29T15:58:54;8.77;;;7.97;;
58758;SDS011;46777;47.482;19.054;2022-07-29T16:01:39;8.63;;;7.75;;
58758;SDS011;46777;47.482;19.054;2022-07-29T16:04:24;8.32;;;7.63;;
58758;SDS011;46777;47.482;19.054;2022-07-29T16:07:09;8.77;;;7.90;;
58758;SDS011;46777;47.482;19.054;2022-07-29T16:09:53;8.82;;;7.95;;
58758;SDS011;46777;47.482;19.054;2022-07-29T16:12:38;9.43;;;8.43;;
58758;SDS011;46777;47.482;19.054;2022-07-29T16:15:23;8.93;;;8.23;;
58758;SDS011;46777;47.482;19.054;2022-07-29T16:18:08;8.18;;;7.47;;
58758;SDS011;46777;47.482;19.054;2022-07-29T16:20:53;9.02;;;8.10;;
58758;SDS011;46777;47.482;19.054;2022-07-29T16:23:38;9.10;;;8.23;;
58758;SDS011;46777;47.482;19.054;2022-07-29T16:26:23;8.50;;;7.70;;
58758;SDS011;46777;47.482;19.054;2022-07-29T16:29:08;8.27;;;7.55;;
58758;SDS011;46777;47.482;19.054;2022-07-29T16:31:53;9.00;;;8.18;;
58758;SDS011;46777;47.482;19.054;2022-07-29T16:34:38;8.75;;;7.97;;
58758;SDS011;46777;47.482;19.054;2022-07-29T16:37:23;8.43;;;7.50;;
58758;SDS011;46777;47.482;19.054;2022-07-29T16:40:08;8.10;;;7.40;;
58758;SDS011;46777;47.482;19.054;2022-07-29T16:42:52;7.43;;;6.72;;
58758;SDS011;46777;47.482;19.054;2022-07-29T16:45:37;8.85;;;7.90;;
58758;SDS011;46777;47.482;19.054;2022-07-29T16:48:22;8.00;;;7.30;;
58758;SDS011;46777;47.482;19.054;2022-07-29T16:51:07;8.88;;;8.07;;
58758;SDS011;46777;47.482;19.054;2022-07-29T16:53:52;8.00;;;7.30;;
58758;SDS011;46777;47.482;19.054;2022-07-29T16:56:36;9.35;;;7.25;;
58758;SDS011;46777;47.482;19.054;2022-07-29T16:59:21;10.77;;;9.88;;
58758;SDS011;46777;47.482;19.054;2022-07-29T17:02:06;8.10;;;7.32;;
58758;SDS011;46777;47.482;19.054;2022-07-29T17:04:51;9.98;;;7.53;;
58758;SDS011;46777;47.482;19.054;2022-07-29T17:07:36;10.40;;;7.65;;
58758;SDS011;46777;47.482;19.054;2022-07-29T17:10:20;8.88;;;7.22;;
58758;SDS011;46777;47.482;19.054;2022-07-29T17:13:05;9.70;;;7.53;;